createdAt,value
2022-12-22T00:01:32.408Z,8.69
2022-12-22T00:04:17.557Z,8.72
2022-12-22T00:07:02.746Z,8.72
2022-12-22T00:09:47.465Z,8.68
2022-12-22T00:12:33.814Z,8.66
2022-12-22T00:15:18.898Z,8.67
2022-12-22T00:18:03.923Z,8.68
2022-12-22T00:20:49.107Z,8.67
2022-12-22T00:23:33.930Z,8.73
2022-12-22T00:26:19.047Z,8.71
2022-12-22T00:29:03.967Z,8.76
2022-12-22T00:31:48.743Z,8.86
2022-12-22T00:34:36.504Z,8.80
2022-12-22T00:37:21.553Z,8.78
2022-12-22T00:40:07.925Z,8.71
2022-12-22T00:42:53.406Z,8.63
2022-12-22T00:45:38.951Z,8.70
2022-12-22T00:48:25.186Z,8.57
2022-12-22T00:51:10.129Z,8.63
2022-12-22T00:53:55.185Z,8.76
2022-12-22T00:56:39.946Z,8.78
2022-12-22T00:59:25.021Z,8.75
2022-12-22T01:02:10.422Z,8.77
2022-12-22T01:04:55.484Z,8.71
2022-12-22T01:07:41.825Z,8.79
2022-12-22T01:10:31.309Z,8.84
2022-12-22T01:13:16.266Z,8.90
2022-12-22T01:16:01.413Z,8.82
2022-12-22T01:18:46.340Z,8.77
2022-12-22T01:21:31.374Z,8.76
2022-12-22T01:24:16.281Z,8.90
2022-12-22T01:27:01.306Z,8.84
2022-12-22T01:29:46.223Z,8.83
2022-12-22T01:32:32.955Z,8.81
2022-12-22T01:35:17.910Z,8.77
2022-12-22T01:38:02.805Z,8.71
2022-12-22T01:40:47.578Z,8.79
2022-12-22T01:43:38.525Z,8.79
2022-12-22T01:46:44.060Z,8.74
2022-12-22T01:49:43.879Z,8.79
2022-12-22T01:52:31.302Z,8.93
2022-12-22T01:55:19.067Z,8.92
2022-12-22T01:58:04.134Z,8.97
2022-12-22T02:00:49.015Z,8.95
2022-12-22T02:03:38.872Z,9.08
2022-12-22T02:06:48.450Z,9.13
2022-12-22T02:09:42.353Z,9.11
2022-12-22T02:12:44.376Z,9.17
2022-12-22T02:15:29.343Z,9.12
2022-12-22T02:18:25.206Z,8.94
2022-12-22T02:21:22.789Z,8.93
2022-12-22T02:24:20.078Z,8.96
2022-12-22T02:27:07.636Z,8.96
2022-12-22T02:29:55.729Z,8.91
2022-12-22T02:32:42.745Z,8.94
2022-12-22T02:35:32.851Z,8.94
2022-12-22T02:38:28.911Z,8.94
2022-12-22T02:41:31.972Z,8.94
2022-12-22T02:44:25.922Z,8.97
2022-12-22T02:47:20.721Z,8.99
2022-12-22T02:50:23.602Z,8.88
2022-12-22T02:53:09.223Z,8.91
2022-12-22T02:55:54.107Z,8.96
2022-12-22T02:58:39.224Z,8.94
2022-12-22T03:01:24.869Z,9.01
2022-12-22T03:04:10.074Z,9.05
2022-12-22T03:06:54.917Z,8.89
2022-12-22T03:09:39.574Z,8.88
2022-12-22T03:12:24.906Z,8.93
2022-12-22T03:15:09.578Z,8.98
2022-12-22T03:17:54.613Z,9.01
2022-12-22T03:20:39.708Z,9.01
2022-12-22T03:23:26.045Z,8.96
2022-12-22T03:25:55.276Z,9.05
2022-12-22T03:28:26.564Z,9.19
2022-12-22T03:30:58.044Z,9.16
2022-12-22T03:33:24.898Z,9.10
2022-12-22T03:35:51.309Z,9.08
2022-12-22T03:38:17.805Z,8.99
2022-12-22T03:40:44.669Z,9.05
2022-12-22T03:43:31.234Z,9.03
2022-12-22T03:46:09.864Z,9.09
2022-12-22T03:48:36.266Z,9.02
2022-12-22T03:51:02.622Z,8.95
2022-12-22T03:53:28.991Z,8.92
2022-12-22T03:55:55.385Z,8.89
2022-12-22T03:58:21.735Z,8.91
2022-12-22T04:00:48.107Z,8.94
2022-12-22T04:03:14.635Z,8.82
2022-12-22T04:05:41.231Z,8.95
2022-12-22T04:08:07.608Z,8.94
2022-12-22T04:10:52.617Z,8.93
2022-12-22T04:13:18.980Z,8.94
2022-12-22T04:15:45.357Z,8.95
2022-12-22T04:18:11.705Z,8.93
2022-12-22T04:20:38.079Z,8.85
2022-12-22T04:23:04.505Z,8.81
2022-12-22T04:25:30.872Z,8.78
2022-12-22T04:27:58.318Z,8.74
2022-12-22T04:30:24.684Z,8.78
2022-12-22T04:32:52.082Z,8.83
2022-12-22T04:35:18.450Z,8.91
2022-12-22T04:37:44.813Z,8.89
2022-12-22T04:40:11.245Z,8.91
2022-12-22T04:42:37.616Z,8.86
2022-12-22T04:45:04.293Z,8.86
2022-12-22T04:47:30.700Z,8.83
2022-12-22T04:49:57.141Z,8.89
2022-12-22T04:52:23.577Z,8.96
2022-12-22T04:54:50.053Z,8.97
2022-12-22T04:57:16.615Z,8.91
2022-12-22T04:59:43.019Z,8.86
2022-12-22T05:02:09.516Z,8.84
2022-12-22T05:04:36.003Z,8.89
2022-12-22T05:07:02.460Z,8.89
2022-12-22T05:09:28.818Z,8.79
2022-12-22T05:11:55.195Z,8.76
2022-12-22T05:14:21.571Z,8.77
2022-12-22T05:16:48.034Z,8.70
2022-12-22T05:19:14.455Z,8.66
2022-12-22T05:21:40.819Z,8.58
2022-12-22T05:24:07.245Z,8.59
2022-12-22T05:26:33.626Z,8.65
2022-12-22T05:29:00.048Z,8.59
2022-12-22T05:31:26.673Z,8.40
2022-12-22T05:33:53.086Z,8.50
2022-12-22T05:36:19.533Z,8.45
2022-12-22T05:38:46.168Z,8.48
2022-12-22T05:41:12.702Z,8.52
2022-12-22T05:43:39.140Z,8.51
2022-12-22T05:46:08.512Z,8.49
2022-12-22T05:48:39.092Z,8.56
2022-12-22T05:51:07.510Z,8.56
2022-12-22T05:53:33.939Z,8.49
2022-12-22T05:56:00.397Z,8.56
2022-12-22T05:58:26.766Z,8.53
2022-12-22T06:00:57.058Z,8.68
2022-12-22T06:03:23.741Z,8.83
2022-12-22T06:05:50.892Z,8.78
2022-12-22T06:08:17.363Z,8.74
2022-12-22T06:10:43.793Z,8.74
2022-12-22T06:13:10.173Z,8.70
2022-12-22T06:15:36.688Z,8.67
2022-12-22T06:18:03.141Z,8.67
2022-12-22T06:20:29.515Z,8.66
2022-12-22T06:22:55.912Z,8.65
2022-12-22T06:25:22.290Z,8.75
2022-12-22T06:27:48.693Z,8.68
2022-12-22T06:30:15.915Z,8.63
2022-12-22T06:32:42.381Z,8.69
2022-12-22T06:35:09.811Z,8.76
2022-12-22T06:37:36.197Z,8.90
2022-12-22T06:40:02.832Z,9.10
2022-12-22T06:42:47.918Z,9.14
2022-12-22T06:45:14.279Z,8.97
2022-12-22T06:47:40.692Z,9.14
2022-12-22T06:50:07.705Z,9.00
2022-12-22T06:52:34.066Z,8.76
2022-12-22T06:55:02.108Z,8.73
2022-12-22T06:57:28.856Z,8.85
2022-12-22T06:59:57.634Z,8.84
2022-12-22T07:02:24.719Z,8.83
2022-12-22T07:04:51.385Z,8.78
2022-12-22T07:07:17.763Z,8.85
2022-12-22T07:09:44.258Z,8.88
2022-12-22T07:12:10.610Z,8.84
2022-12-22T07:14:37.037Z,8.70
2022-12-22T07:17:03.682Z,8.72
2022-12-22T07:19:30.063Z,8.87
2022-12-22T07:21:56.427Z,8.98
2022-12-22T07:24:25.704Z,9.13
2022-12-22T07:26:52.219Z,9.18
2022-12-22T07:29:18.603Z,9.12
2022-12-22T07:31:45.014Z,9.15
2022-12-22T07:34:11.843Z,9.05
2022-12-22T07:36:38.201Z,8.86
2022-12-22T07:39:04.604Z,8.70
2022-12-22T07:41:49.441Z,8.68
2022-12-22T07:44:15.813Z,8.78
2022-12-22T07:46:42.204Z,8.76
2022-12-22T07:49:28.400Z,8.80
2022-12-22T07:51:56.967Z,9.04
2022-12-22T07:54:23.686Z,8.88
2022-12-22T07:56:50.044Z,8.93
2022-12-22T07:59:16.463Z,8.88
2022-12-22T08:01:43.134Z,8.86
2022-12-22T08:04:10.198Z,9.06
2022-12-22T08:06:36.674Z,9.19
2022-12-22T08:09:04.380Z,9.26
2022-12-22T08:11:30.874Z,9.13
2022-12-22T08:14:01.183Z,9.25
2022-12-22T08:16:28.486Z,9.18
2022-12-22T08:18:54.888Z,9.22
2022-12-22T08:21:21.293Z,9.25
2022-12-22T08:23:47.650Z,9.31
2022-12-22T08:26:15.199Z,9.33
2022-12-22T08:28:45.202Z,9.35
2022-12-22T08:31:11.622Z,9.35
2022-12-22T08:33:38.069Z,9.27
2022-12-22T08:36:08.348Z,9.27
2022-12-22T08:38:36.272Z,9.20
2022-12-22T08:41:02.719Z,9.10
2022-12-22T08:43:30.482Z,9.11
2022-12-22T08:45:56.853Z,9.17
2022-12-22T08:48:23.201Z,9.04
2022-12-22T08:50:49.573Z,8.95
2022-12-22T08:53:37.663Z,9.03
2022-12-22T08:56:02.918Z,9.04
2022-12-22T08:58:29.274Z,9.09
2022-12-22T09:00:55.722Z,9.02
2022-12-22T09:03:22.190Z,9.07
2022-12-22T09:05:48.580Z,9.03
2022-12-22T09:08:15.034Z,8.98
2022-12-22T09:10:43.612Z,8.96
2022-12-22T09:13:11.007Z,8.98
2022-12-22T09:15:37.655Z,9.10
2022-12-22T09:18:04.235Z,9.19
2022-12-22T09:20:30.625Z,9.23
2022-12-22T09:22:56.969Z,9.18
2022-12-22T09:25:23.356Z,9.13
2022-12-22T09:27:49.708Z,9.32
2022-12-22T09:30:16.115Z,9.29
2022-12-22T09:32:42.648Z,9.31
2022-12-22T09:35:09.174Z,9.13
2022-12-22T09:37:35.580Z,9.03
2022-12-22T09:40:01.971Z,9.21
2022-12-22T09:42:30.533Z,9.37
2022-12-22T09:44:56.933Z,9.56
2022-12-22T09:47:32.278Z,9.51
2022-12-22T09:49:59.184Z,9.55
2022-12-22T09:52:34.584Z,9.48
2022-12-22T09:55:02.270Z,9.52
2022-12-22T09:57:32.300Z,9.66
2022-12-22T10:00:10.390Z,9.39
2022-12-22T10:02:48.832Z,9.54
2022-12-22T10:05:28.154Z,9.28
2022-12-22T10:08:01.092Z,9.36
2022-12-22T10:10:30.371Z,9.10
2022-12-22T10:13:01.788Z,9.14
2022-12-22T10:15:35.467Z,9.03
2022-12-22T10:18:19.380Z,9.18
2022-12-22T10:20:48.588Z,8.97
2022-12-22T10:23:21.759Z,9.10
2022-12-22T10:28:48.620Z,9.32
2022-12-22T10:31:22.348Z,9.30
2022-12-22T10:33:51.277Z,9.34
2022-12-22T10:36:29.121Z,9.08
2022-12-22T10:39:01.766Z,8.78
2022-12-22T10:41:38.303Z,8.93
2022-12-22T10:44:16.373Z,8.95
2022-12-22T10:46:46.343Z,9.00
2022-12-22T10:49:17.541Z,9.03
2022-12-22T10:51:45.964Z,8.86
2022-12-22T10:54:32.570Z,8.92
2022-12-22T10:57:14.894Z,8.94
2022-12-22T10:59:57.847Z,8.78
2022-12-22T11:02:24.338Z,8.88
2022-12-22T11:04:51.425Z,8.91
2022-12-22T11:07:18.050Z,8.90
2022-12-22T11:09:44.466Z,8.85
2022-12-22T11:12:26.549Z,8.74
2022-12-22T11:15:03.875Z,8.49
2022-12-22T11:17:45.522Z,8.57
2022-12-22T11:20:33.096Z,8.58
2022-12-22T11:23:08.166Z,8.66
2022-12-22T11:25:44.334Z,8.54
2022-12-22T11:28:29.263Z,8.43
2022-12-22T11:31:07.810Z,8.56
2022-12-22T11:34:06.133Z,8.53
2022-12-22T11:37:20.673Z,8.78
2022-12-22T11:39:51.863Z,8.84
2022-12-22T11:42:32.785Z,8.83
2022-12-22T11:45:25.025Z,8.98
2022-12-22T11:48:16.637Z,9.12
2022-12-22T11:51:02.231Z,9.17
2022-12-22T11:54:10.317Z,9.16
2022-12-22T11:56:46.843Z,9.05
2022-12-22T11:59:26.775Z,9.21
2022-12-22T12:02:43.726Z,9.25
2022-12-22T12:05:34.388Z,9.20
2022-12-22T12:08:29.094Z,9.35
2022-12-22T12:11:21.678Z,9.30
2022-12-22T12:14:06.739Z,9.10
2022-12-22T12:16:46.098Z,9.04
2022-12-22T12:19:37.427Z,8.70
2022-12-22T12:22:11.690Z,8.78
2022-12-22T12:25:03.088Z,8.75
2022-12-22T12:27:58.764Z,8.92
2022-12-22T12:30:40.666Z,9.00
2022-12-22T12:33:34.888Z,8.98
2022-12-22T12:36:17.250Z,9.11
2022-12-22T12:41:56.487Z,9.23
2022-12-22T12:44:29.025Z,9.04
2022-12-22T12:47:04.299Z,9.06
2022-12-22T12:49:33.701Z,9.02
2022-12-22T12:52:10.693Z,9.23
2022-12-22T12:54:41.133Z,9.19
2022-12-22T12:57:07.447Z,9.14
2022-12-22T12:59:40.010Z,9.15
2022-12-22T13:02:28.854Z,9.24
2022-12-22T13:05:04.464Z,9.36
2022-12-22T13:08:08.435Z,9.35
2022-12-22T13:10:43.077Z,9.34
2022-12-22T13:13:21.411Z,9.28
2022-12-22T13:16:03.985Z,9.47
2022-12-22T13:18:33.111Z,9.36
2022-12-22T13:24:25.179Z,9.25
2022-12-22T13:26:55.083Z,9.31
2022-12-22T13:29:42.784Z,9.31
2022-12-22T13:32:22.860Z,9.39
2022-12-22T13:35:33.882Z,9.41
2022-12-22T13:38:01.986Z,9.46
2022-12-22T13:40:31.034Z,9.54
2022-12-22T13:43:03.070Z,9.58
2022-12-22T13:45:33.322Z,9.51
2022-12-22T13:48:00.954Z,9.25
2022-12-22T13:50:37.293Z,9.24
2022-12-22T13:53:07.325Z,9.10
2022-12-22T13:55:34.040Z,9.04
2022-12-22T13:58:07.693Z,9.09
2022-12-22T14:00:34.791Z,9.09
2022-12-22T14:03:01.343Z,9.06
2022-12-22T14:05:32.334Z,9.09
2022-12-22T14:08:04.633Z,9.26
2022-12-22T14:10:43.725Z,9.32
2022-12-22T14:13:18.935Z,9.41
2022-12-22T14:15:45.598Z,9.49
2022-12-22T14:18:25.826Z,9.36
2022-12-22T14:20:52.562Z,9.42
2022-12-22T14:23:25.606Z,9.46
2022-12-22T14:25:53.095Z,9.44
2022-12-22T14:28:26.118Z,9.34
2022-12-22T14:30:54.643Z,9.17
2022-12-22T14:33:26.156Z,9.08
2022-12-22T14:36:14.689Z,9.13
2022-12-22T14:38:43.909Z,8.99
2022-12-22T14:41:41.369Z,8.97
2022-12-22T14:44:18.582Z,8.93
2022-12-22T14:46:45.895Z,8.86
2022-12-22T14:49:18.329Z,8.91
2022-12-22T14:52:01.248Z,8.86
2022-12-22T14:54:28.348Z,8.73
2022-12-22T14:57:08.476Z,8.68
2022-12-22T14:59:39.647Z,8.61
2022-12-22T15:02:26.310Z,8.57
2022-12-22T15:05:16.298Z,8.48
2022-12-22T15:10:42.179Z,8.38
2022-12-22T15:13:27.226Z,8.34
2022-12-22T15:15:53.741Z,8.36
2022-12-22T15:18:25.373Z,8.37
2022-12-22T15:20:52.046Z,8.37
2022-12-22T15:23:18.400Z,8.45
2022-12-22T15:25:45.443Z,8.52
2022-12-22T15:28:11.805Z,8.56
2022-12-22T15:30:38.350Z,8.57
2022-12-22T15:33:10.599Z,8.67
2022-12-22T15:35:36.941Z,8.61
2022-12-22T15:38:03.320Z,8.60
2022-12-22T15:40:29.690Z,8.65
2022-12-22T15:42:56.025Z,8.67
2022-12-22T15:45:22.740Z,8.64
2022-12-22T15:47:51.484Z,8.69
2022-12-22T15:50:20.823Z,8.45
2022-12-22T15:52:53.267Z,8.54
2022-12-22T15:55:20.295Z,8.45
2022-12-22T15:57:50.143Z,8.26
2022-12-22T16:00:17.715Z,8.31
2022-12-22T16:02:44.200Z,8.29
2022-12-22T16:05:11.355Z,8.18
2022-12-22T16:07:39.187Z,8.36
2022-12-22T16:10:07.500Z,8.37
2022-12-22T16:12:34.523Z,8.47
2022-12-22T16:15:01.756Z,8.46
2022-12-22T16:17:29.205Z,8.30
2022-12-22T16:19:55.571Z,8.18
2022-12-22T16:22:29.824Z,8.19
2022-12-22T16:24:56.249Z,8.03
2022-12-22T16:27:22.627Z,8.01
2022-12-22T16:29:52.869Z,7.92
2022-12-22T16:32:23.735Z,7.89
2022-12-22T16:34:50.117Z,7.96
2022-12-22T16:37:16.472Z,8.03
2022-12-22T16:39:42.915Z,8.00
2022-12-22T16:45:00.992Z,7.91
2022-12-22T16:47:31.498Z,7.98
2022-12-22T16:49:58.523Z,7.95
2022-12-22T16:52:28.365Z,7.78
2022-12-22T16:54:54.813Z,7.88
2022-12-22T16:57:21.186Z,8.12
2022-12-22T16:59:47.609Z,8.15
2022-12-22T17:02:27.947Z,8.13
2022-12-22T17:04:55.991Z,8.19
2022-12-22T17:07:22.585Z,8.30
2022-12-22T17:09:52.838Z,8.24
2022-12-22T17:12:22.188Z,8.28
2022-12-22T17:14:49.022Z,8.28
2022-12-22T17:17:17.461Z,8.38
2022-12-22T17:19:44.747Z,8.44
2022-12-22T17:22:27.773Z,8.22
2022-12-22T17:24:56.051Z,8.22
2022-12-22T17:27:25.631Z,8.20
2022-12-22T17:29:52.638Z,8.19
2022-12-22T17:32:19.590Z,8.22
2022-12-22T17:34:46.251Z,8.27
2022-12-22T17:37:14.849Z,8.17
2022-12-22T17:39:42.170Z,8.09
2022-12-22T17:42:19.917Z,8.02
2022-12-22T17:44:46.991Z,8.18
2022-12-22T17:47:14.868Z,8.28
2022-12-22T17:49:42.394Z,8.27
2022-12-22T17:52:23.027Z,8.21
2022-12-22T17:54:50.817Z,8.35
2022-12-22T17:57:36.290Z,8.35
2022-12-22T18:00:03.378Z,8.29
2022-12-22T18:02:30.091Z,8.16
2022-12-22T18:04:56.633Z,8.11
2022-12-22T18:07:24.466Z,8.21
2022-12-22T18:09:54.411Z,8.18
2022-12-22T18:12:23.004Z,8.11
2022-12-22T18:14:49.747Z,8.20
2022-12-22T18:17:35.209Z,8.26
2022-12-22T18:20:02.426Z,8.35
2022-12-22T18:22:29.814Z,8.45
2022-12-22T18:24:56.617Z,8.53
2022-12-22T18:27:23.426Z,8.47
2022-12-22T18:29:49.846Z,8.49
2022-12-22T18:32:22.888Z,8.57
2022-12-22T18:34:52.944Z,8.44
2022-12-22T18:37:19.308Z,8.52
2022-12-22T18:39:45.999Z,8.62
2022-12-22T18:42:20.205Z,8.51
2022-12-22T18:44:46.856Z,8.52
2022-12-22T18:47:13.353Z,8.50
2022-12-22T18:49:39.825Z,8.67
2022-12-22T18:52:21.621Z,8.64
2022-12-22T18:54:48.709Z,8.47
2022-12-22T18:57:18.129Z,8.48
2022-12-22T18:59:44.969Z,8.53
2022-12-22T19:02:23.763Z,8.58
2022-12-22T19:04:50.552Z,8.67
2022-12-22T19:07:19.707Z,8.71
2022-12-22T19:09:46.471Z,8.66
2022-12-22T19:12:18.297Z,8.68
2022-12-22T19:14:48.155Z,8.73
2022-12-22T19:17:17.109Z,8.66
2022-12-22T19:19:43.490Z,8.75
2022-12-22T19:22:13.984Z,8.66
2022-12-22T19:24:41.459Z,8.67
2022-12-22T19:27:14.504Z,8.77
2022-12-22T19:29:40.875Z,8.58
2022-12-22T19:32:16.206Z,8.66
2022-12-22T19:34:42.777Z,8.75
2022-12-22T19:37:09.513Z,8.61
2022-12-22T19:39:35.869Z,8.66
2022-12-22T19:42:02.225Z,8.64
2022-12-22T19:44:30.314Z,8.74
2022-12-22T19:46:59.132Z,8.73
2022-12-22T19:49:27.254Z,8.66
2022-12-22T19:51:57.792Z,8.72
2022-12-22T19:54:24.396Z,8.76
2022-12-22T19:56:52.631Z,8.78
2022-12-22T19:59:40.382Z,8.75
2022-12-22T20:02:25.532Z,8.77
2022-12-22T20:04:52.611Z,8.83
2022-12-22T20:07:20.564Z,8.77
2022-12-22T20:09:46.999Z,8.82
2022-12-22T20:12:29.830Z,8.83
2022-12-22T20:14:56.282Z,8.78
2022-12-22T20:17:22.711Z,8.74
2022-12-22T20:19:49.114Z,8.76
2022-12-22T20:22:16.823Z,8.75
2022-12-22T20:24:44.116Z,8.74
2022-12-22T20:27:23.986Z,8.80
2022-12-22T20:29:50.453Z,8.76
2022-12-22T20:32:20.950Z,8.80
2022-12-22T20:34:51.997Z,8.86
2022-12-22T20:37:18.769Z,8.92
2022-12-22T20:39:45.392Z,8.92
2022-12-22T20:42:19.190Z,8.94
2022-12-22T20:45:02.191Z,8.93
2022-12-22T20:47:30.106Z,8.93
2022-12-22T20:49:56.544Z,9.04
2022-12-22T20:52:22.903Z,9.03
2022-12-22T20:54:49.293Z,9.01
2022-12-22T20:57:16.270Z,8.98
2022-12-22T20:59:43.462Z,9.02
2022-12-22T21:02:21.917Z,9.11
2022-12-22T21:04:48.562Z,9.02
2022-12-22T21:07:15.275Z,9.11
2022-12-22T21:09:41.997Z,9.09
2022-12-22T21:12:08.357Z,9.14
2022-12-22T21:14:34.748Z,9.19
2022-12-22T21:17:01.236Z,9.22
2022-12-22T21:19:27.833Z,9.23
2022-12-22T21:21:54.711Z,9.19
2022-12-22T21:24:21.066Z,9.25
2022-12-22T21:26:49.498Z,9.26
2022-12-22T21:29:21.994Z,9.23
2022-12-22T21:31:48.353Z,9.30
2022-12-22T21:34:14.733Z,9.21
2022-12-22T21:36:43.537Z,9.18
2022-12-22T21:39:19.341Z,9.14
2022-12-22T21:42:00.889Z,9.17
2022-12-22T21:44:32.409Z,9.21
2022-12-22T21:46:59.193Z,9.16
2022-12-22T21:49:27.955Z,9.17
2022-12-22T21:51:54.665Z,9.12
2022-12-22T21:54:22.682Z,9.17
2022-12-22T21:56:50.107Z,9.13
2022-12-22T21:59:16.703Z,9.17
2022-12-22T22:01:44.806Z,9.20
2022-12-22T22:04:11.614Z,9.29
2022-12-22T22:06:38.021Z,9.22
2022-12-22T22:09:05.526Z,9.22
2022-12-22T22:11:32.064Z,9.27
2022-12-22T22:13:58.458Z,9.20
2022-12-22T22:16:25.234Z,9.28
2022-12-22T22:18:51.703Z,9.22
2022-12-22T22:21:18.380Z,9.24
2022-12-22T22:23:44.754Z,9.43
2022-12-22T22:26:11.349Z,9.57
2022-12-22T22:28:38.007Z,9.61
2022-12-22T22:31:11.145Z,9.70
2022-12-22T22:33:37.640Z,9.64
2022-12-22T22:36:08.107Z,9.59
2022-12-22T22:38:34.870Z,9.58
2022-12-22T22:41:01.301Z,9.29
2022-12-22T22:43:27.684Z,9.18
2022-12-22T22:45:54.517Z,9.18
2022-12-22T22:48:22.405Z,9.19
2022-12-22T22:50:49.313Z,9.22
2022-12-22T22:53:15.805Z,9.22
2022-12-22T22:55:42.178Z,9.22
2022-12-22T22:58:11.141Z,9.22
2022-12-22T23:00:38.409Z,9.24
2022-12-22T23:03:05.066Z,9.25
2022-12-22T23:05:31.556Z,9.21
2022-12-22T23:07:57.916Z,9.21
2022-12-22T23:10:24.285Z,9.24
2022-12-22T23:12:50.666Z,9.24
2022-12-22T23:15:17.097Z,9.24
2022-12-22T23:17:43.553Z,9.25
2022-12-22T23:20:10.058Z,9.23
2022-12-22T23:22:36.491Z,9.20
2022-12-22T23:25:02.885Z,9.28
2022-12-22T23:27:30.235Z,9.27
2022-12-22T23:29:56.624Z,9.25
2022-12-22T23:32:23.535Z,9.33
2022-12-22T23:34:49.910Z,9.34
2022-12-22T23:37:19.554Z,9.35
2022-12-22T23:39:46.564Z,9.32
2022-12-22T23:42:12.939Z,9.35
2022-12-22T23:44:39.375Z,9.37
2022-12-22T23:47:05.941Z,9.36
2022-12-22T23:49:32.319Z,9.34
2022-12-22T23:51:58.694Z,9.37
2022-12-22T23:54:25.070Z,9.43
2022-12-22T23:56:51.583Z,9.45
2022-12-22T23:59:17.941Z,9.48
